<?xml version="1.0" encoding="UTF-8" standalone="no" ?>
<gpx xmlns="http://www.topografix.com/GPX/1/1" xmlns:xsi="http://www.w3.org/2001/XMLSchema-instance" xsi:schemaLocation="http://www.topografix.com/GPX/1/1 http://www.topografix.com/GPX/1/1/gpx.xsd" version="1.1" creator="VisuGPX - https://www.visugpx.com">
  <metadata>
    <name>proposition par Scey 23,5 km</name>
    <desc><![CDATA[pas trop de côtes pour cette proposition par Scey 23,5 km]]></desc>
  </metadata>
  <trk>
    <name><![CDATA[scey 23km]]></name>
    <trkseg>
      <trkpt lat="47.68634" lon="6.04531">
        <ele>229.12879943848</ele>
        <time>2018-08-16T14:27:27Z</time>
      </trkpt>
      <trkpt lat="47.68635" lon="6.04527">
        <ele>229.01232910156</ele>
        <time>2018-08-16T14:27:27Z</time>
      </trkpt>
      <trkpt lat="47.68591" lon="6.04498">
        <ele>224.89012145996</ele>
        <time>2018-08-16T14:27:27Z</time>
      </trkpt>
      <trkpt lat="47.68544" lon="6.04467">
        <ele>220.42419433594</ele>
        <time>2018-08-16T14:27:28Z</time>
      </trkpt>
      <trkpt lat="47.68509" lon="6.04443">
        <ele>218.01564025879</ele>
        <time>2018-08-16T14:27:41Z</time>
      </trkpt>
      <trkpt lat="47.68496" lon="6.04437">
        <ele>217.27290344238</ele>
        <time>2018-08-16T14:27:55Z</time>
      </trkpt>
      <trkpt lat="47.68483" lon="6.04433">
        <ele>216.58840942383</ele>
        <time>2018-08-16T14:28:05Z</time>
      </trkpt>
      <trkpt lat="47.6847" lon="6.04432">
        <ele>215.99130249023</ele>
        <time>2018-08-16T14:28:09Z</time>
      </trkpt>
      <trkpt lat="47.68415" lon="6.04432">
        <ele>213.58831787109</ele>
        <time>2018-08-16T14:28:13Z</time>
      </trkpt>
      <trkpt lat="47.68399" lon="6.04432">
        <ele>213.09567260742</ele>
        <time>2018-08-16T14:28:16Z</time>
      </trkpt>
      <trkpt lat="47.68325" lon="6.04426">
        <ele>211.35768127441</ele>
        <time>2018-08-16T14:28:31Z</time>
      </trkpt>
      <trkpt lat="47.68289" lon="6.04423">
        <ele>210.78970336914</ele>
        <time>2018-08-16T14:28:35Z</time>
      </trkpt>
      <trkpt lat="47.68268" lon="6.04418">
        <ele>210.44467163086</ele>
        <time>2018-08-16T14:28:55Z</time>
      </trkpt>
      <trkpt lat="47.68231" lon="6.04397">
        <ele>210.06721496582</ele>
        <time>2018-08-16T14:29:05Z</time>
      </trkpt>
      <trkpt lat="47.6819" lon="6.04371">
        <ele>209.84184265137</ele>
        <time>2018-08-16T14:29:11Z</time>
      </trkpt>
      <trkpt lat="47.68172" lon="6.04368">
        <ele>209.65478515625</ele>
        <time>2018-08-16T14:29:22Z</time>
      </trkpt>
      <trkpt lat="47.68129" lon="6.04379">
        <ele>209.08464050293</ele>
        <time>2018-08-16T14:29:34Z</time>
      </trkpt>
      <trkpt lat="47.68108" lon="6.04387">
        <ele>208.97634887695</ele>
        <time>2018-08-16T14:29:39Z</time>
      </trkpt>
      <trkpt lat="47.68068" lon="6.04405">
        <ele>208.71420288086</ele>
        <time>2018-08-16T14:29:51Z</time>
      </trkpt>
      <trkpt lat="47.68036" lon="6.04437">
        <ele>209.35684204102</ele>
        <time>2018-08-16T14:29:57Z</time>
      </trkpt>
      <trkpt lat="47.68033" lon="6.04437">
        <ele>209.4662322998</ele>
        <time>2018-08-16T14:30:08Z</time>
      </trkpt>
      <trkpt lat="47.68032" lon="6.04437">
        <ele>209.50270080566</ele>
        <time>2018-08-16T14:30:18Z</time>
      </trkpt>
      <trkpt lat="47.6803" lon="6.04438">
        <ele>209.57650756836</ele>
        <time>2018-08-16T14:30:19Z</time>
      </trkpt>
      <trkpt lat="47.68007" lon="6.04429">
        <ele>210.32916259766</ele>
        <time>2018-08-16T14:30:19Z</time>
      </trkpt>
      <trkpt lat="47.67987" lon="6.04428">
        <ele>210.65853881836</ele>
        <time>2018-08-16T14:30:20Z</time>
      </trkpt>
      <trkpt lat="47.67971" lon="6.04429">
        <ele>210.74072265625</ele>
        <time>2018-08-16T14:30:26Z</time>
      </trkpt>
      <trkpt lat="47.67933" lon="6.04426">
        <ele>210.76441955566</ele>
        <time>2018-08-16T14:30:31Z</time>
      </trkpt>
      <trkpt lat="47.67868" lon="6.0442">
        <ele>215.41633605957</ele>
        <time>2018-08-16T14:30:35Z</time>
      </trkpt>
      <trkpt lat="47.67816" lon="6.04409">
        <ele>220.25953674316</ele>
        <time>2018-08-16T14:30:45Z</time>
      </trkpt>
      <trkpt lat="47.67764" lon="6.0439">
        <ele>224.29750061035</ele>
        <time>2018-08-16T14:31:02Z</time>
      </trkpt>
      <trkpt lat="47.67737" lon="6.04376">
        <ele>225.75694274902</ele>
        <time>2018-08-16T14:31:16Z</time>
      </trkpt>
      <trkpt lat="47.67708" lon="6.04357">
        <ele>227.30989074707</ele>
        <time>2018-08-16T14:31:30Z</time>
      </trkpt>
      <trkpt lat="47.67684" lon="6.04337">
        <ele>228.64974975586</ele>
        <time>2018-08-16T14:31:38Z</time>
      </trkpt>
      <trkpt lat="47.67657" lon="6.04308">
        <ele>228.8858795166</ele>
        <time>2018-08-16T14:31:46Z</time>
      </trkpt>
      <trkpt lat="47.67585" lon="6.04216">
        <ele>230.61245727539</ele>
        <time>2018-08-16T14:31:53Z</time>
      </trkpt>
      <trkpt lat="47.67503" lon="6.04111">
        <ele>232.11654663086</ele>
        <time>2018-08-16T14:32:02Z</time>
      </trkpt>
      <trkpt lat="47.67448" lon="6.04025">
        <ele>232.35479736328</ele>
        <time>2018-08-16T14:32:27Z</time>
      </trkpt>
      <trkpt lat="47.67398" lon="6.03945">
        <ele>229.42974853516</ele>
        <time>2018-08-16T14:32:56Z</time>
      </trkpt>
      <trkpt lat="47.67341" lon="6.0388">
        <ele>231.38125610352</ele>
        <time>2018-08-16T14:33:17Z</time>
      </trkpt>
      <trkpt lat="47.67318" lon="6.03841">
        <ele>232.95936584473</ele>
        <time>2018-08-16T14:33:37Z</time>
      </trkpt>
      <trkpt lat="47.67297" lon="6.038">
        <ele>233.31611633301</ele>
        <time>2018-08-16T14:33:56Z</time>
      </trkpt>
      <trkpt lat="47.67233" lon="6.03686">
        <ele>238.04983520508</ele>
        <time>2018-08-16T14:34:05Z</time>
      </trkpt>
      <trkpt lat="47.67233" lon="6.03686">
        <ele>238.04983520508</ele>
        <time>2018-08-16T14:34:14Z</time>
      </trkpt>
      <trkpt lat="47.67198" lon="6.03615">
        <ele>242.41691589355</ele>
        <time>2018-08-16T14:34:41Z</time>
      </trkpt>
      <trkpt lat="47.67154" lon="6.03536">
        <ele>245.03840637207</ele>
        <time>2018-08-16T14:34:41Z</time>
      </trkpt>
      <trkpt lat="47.67065" lon="6.03396">
        <ele>240.52560424805</ele>
        <time>2018-08-16T14:34:42Z</time>
      </trkpt>
      <trkpt lat="47.66859" lon="6.03595">
        <ele>244.44889831543</ele>
        <time>2018-08-16T14:34:55Z</time>
      </trkpt>
      <trkpt lat="47.66882" lon="6.03625">
        <ele>247.78224182129</ele>
        <time>2018-08-16T14:35:09Z</time>
      </trkpt>
      <trkpt lat="47.66651" lon="6.04138">
        <ele>265.17697143555</ele>
        <time>2018-08-16T14:35:19Z</time>
      </trkpt>
      <trkpt lat="47.66651" lon="6.04137">
        <ele>265.16802978516</ele>
        <time>2018-08-16T14:35:23Z</time>
      </trkpt>
      <trkpt lat="47.66507" lon="6.04">
        <ele>246.0435333252</ele>
        <time>2018-08-16T14:35:27Z</time>
      </trkpt>
      <trkpt lat="47.66475" lon="6.03972">
        <ele>240.81945800781</ele>
        <time>2018-08-16T14:35:30Z</time>
      </trkpt>
      <trkpt lat="47.66465" lon="6.03954">
        <ele>238.3727722168</ele>
        <time>2018-08-16T14:35:45Z</time>
      </trkpt>
      <trkpt lat="47.66462" lon="6.03933">
        <ele>236.27561950684</ele>
        <time>2018-08-16T14:35:49Z</time>
      </trkpt>
      <trkpt lat="47.66464" lon="6.03906">
        <ele>234.0910949707</ele>
        <time>2018-08-16T14:36:09Z</time>
      </trkpt>
      <trkpt lat="47.66469" lon="6.03881">
        <ele>233.97981262207</ele>
        <time>2018-08-16T14:36:19Z</time>
      </trkpt>
      <trkpt lat="47.66466" lon="6.0386">
        <ele>233.30267333984</ele>
        <time>2018-08-16T14:36:25Z</time>
      </trkpt>
      <trkpt lat="47.66457" lon="6.03827">
        <ele>231.87138366699</ele>
        <time>2018-08-16T14:36:36Z</time>
      </trkpt>
      <trkpt lat="47.66451" lon="6.03786">
        <ele>230.93406677246</ele>
        <time>2018-08-16T14:36:48Z</time>
      </trkpt>
      <trkpt lat="47.66448" lon="6.03747">
        <ele>230.44200134277</ele>
        <time>2018-08-16T14:36:53Z</time>
      </trkpt>
      <trkpt lat="47.6645" lon="6.03709">
        <ele>230.67501831055</ele>
        <time>2018-08-16T14:37:05Z</time>
      </trkpt>
      <trkpt lat="47.66453" lon="6.03669">
        <ele>231.0272064209</ele>
        <time>2018-08-16T14:37:11Z</time>
      </trkpt>
      <trkpt lat="47.66467" lon="6.03599">
        <ele>232.48457336426</ele>
        <time>2018-08-16T14:37:22Z</time>
      </trkpt>
      <trkpt lat="47.66476" lon="6.03549">
        <ele>232.37379455566</ele>
        <time>2018-08-16T14:37:32Z</time>
      </trkpt>
      <trkpt lat="47.66487" lon="6.0351">
        <ele>231.240234375</ele>
        <time>2018-08-16T14:37:33Z</time>
      </trkpt>
      <trkpt lat="47.66503" lon="6.03478">
        <ele>229.3233795166</ele>
        <time>2018-08-16T14:37:33Z</time>
      </trkpt>
      <trkpt lat="47.66514" lon="6.03451">
        <ele>226.83505249023</ele>
        <time>2018-08-16T14:37:34Z</time>
      </trkpt>
      <trkpt lat="47.66518" lon="6.03421">
        <ele>223.61082458496</ele>
        <time>2018-08-16T14:37:40Z</time>
      </trkpt>
      <trkpt lat="47.66518" lon="6.03391">
        <ele>220.79290771484</ele>
        <time>2018-08-16T14:37:45Z</time>
      </trkpt>
      <trkpt lat="47.66518" lon="6.03382">
        <ele>219.94752502441</ele>
        <time>2018-08-16T14:37:49Z</time>
      </trkpt>
      <trkpt lat="47.66518" lon="6.03382">
        <ele>219.94752502441</ele>
        <time>2018-08-16T14:37:59Z</time>
      </trkpt>
      <trkpt lat="47.66522" lon="6.0331">
        <ele>214.53736877441</ele>
        <time>2018-08-16T14:38:16Z</time>
      </trkpt>
      <trkpt lat="47.66522" lon="6.03277">
        <ele>212.66003417969</ele>
        <time>2018-08-16T14:38:30Z</time>
      </trkpt>
      <trkpt lat="47.66519" lon="6.0326">
        <ele>211.96875</ele>
        <time>2018-08-16T14:38:44Z</time>
      </trkpt>
      <trkpt lat="47.66512" lon="6.03244">
        <ele>211.25410461426</ele>
        <time>2018-08-16T14:38:52Z</time>
      </trkpt>
      <trkpt lat="47.66508" lon="6.03227">
        <ele>210.60342407227</ele>
        <time>2018-08-16T14:39:00Z</time>
      </trkpt>
      <trkpt lat="47.66504" lon="6.03161">
        <ele>211.70401000977</ele>
        <time>2018-08-16T14:39:07Z</time>
      </trkpt>
      <trkpt lat="47.665" lon="6.03118">
        <ele>215.11669921875</ele>
        <time>2018-08-16T14:39:16Z</time>
      </trkpt>
      <trkpt lat="47.66499" lon="6.03101">
        <ele>216.81359863281</ele>
        <time>2018-08-16T14:39:41Z</time>
      </trkpt>
      <trkpt lat="47.66498" lon="6.03088">
        <ele>218.11915588379</ele>
        <time>2018-08-16T14:40:10Z</time>
      </trkpt>
      <trkpt lat="47.66481" lon="6.03085">
        <ele>218.39390563965</ele>
        <time>2018-08-16T14:40:31Z</time>
      </trkpt>
      <trkpt lat="47.66455" lon="6.03079">
        <ele>218.31753540039</ele>
        <time>2018-08-16T14:40:51Z</time>
      </trkpt>
      <trkpt lat="47.66435" lon="6.03069">
        <ele>219.2816619873</ele>
        <time>2018-08-16T14:41:10Z</time>
      </trkpt>
      <trkpt lat="47.66429" lon="6.03063">
        <ele>220.07116699219</ele>
        <time>2018-08-16T14:41:19Z</time>
      </trkpt>
      <trkpt lat="47.66408" lon="6.03053">
        <ele>220.77159118652</ele>
        <time>2018-08-16T14:41:28Z</time>
      </trkpt>
      <trkpt lat="47.66378" lon="6.03032">
        <ele>221.1213684082</ele>
        <time>2018-08-16T14:41:55Z</time>
      </trkpt>
      <trkpt lat="47.66355" lon="6.03009">
        <ele>220.69317626953</ele>
        <time>2018-08-16T14:41:55Z</time>
      </trkpt>
      <trkpt lat="47.66329" lon="6.02975">
        <ele>219.56611633301</ele>
        <time>2018-08-16T14:42:11Z</time>
      </trkpt>
      <trkpt lat="47.66308" lon="6.02947">
        <ele>218.85250854492</ele>
        <time>2018-08-16T14:42:29Z</time>
      </trkpt>
      <trkpt lat="47.66297" lon="6.02929">
        <ele>218.36578369141</ele>
        <time>2018-08-16T14:43:04Z</time>
      </trkpt>
      <trkpt lat="47.66272" lon="6.02891">
        <ele>217.23168945312</ele>
        <time>2018-08-16T14:43:04Z</time>
      </trkpt>
      <trkpt lat="47.66261" lon="6.02878">
        <ele>216.78021240234</ele>
        <time>2018-08-16T14:43:05Z</time>
      </trkpt>
      <trkpt lat="47.66257" lon="6.0287">
        <ele>216.66371154785</ele>
        <time>2018-08-16T14:43:18Z</time>
      </trkpt>
      <trkpt lat="47.66231" lon="6.02836">
        <ele>215.6442565918</ele>
        <time>2018-08-16T14:43:32Z</time>
      </trkpt>
      <trkpt lat="47.66215" lon="6.02808">
        <ele>215.11996459961</ele>
        <time>2018-08-16T14:43:42Z</time>
      </trkpt>
      <trkpt lat="47.66209" lon="6.02798">
        <ele>214.73085021973</ele>
        <time>2018-08-16T14:43:46Z</time>
      </trkpt>
      <trkpt lat="47.66203" lon="6.02776">
        <ele>214.1483001709</ele>
        <time>2018-08-16T14:43:50Z</time>
      </trkpt>
      <trkpt lat="47.66199" lon="6.02745">
        <ele>213.52206420898</ele>
        <time>2018-08-16T14:43:53Z</time>
      </trkpt>
      <trkpt lat="47.66194" lon="6.02692">
        <ele>212.70964050293</ele>
        <time>2018-08-16T14:44:08Z</time>
      </trkpt>
      <trkpt lat="47.66191" lon="6.02676">
        <ele>212.44729614258</ele>
        <time>2018-08-16T14:44:12Z</time>
      </trkpt>
      <trkpt lat="47.66184" lon="6.02667">
        <ele>212.13024902344</ele>
        <time>2018-08-16T14:44:32Z</time>
      </trkpt>
      <trkpt lat="47.66177" lon="6.02663">
        <ele>211.84255981445</ele>
        <time>2018-08-16T14:44:42Z</time>
      </trkpt>
      <trkpt lat="47.66154" lon="6.02651">
        <ele>211.00001525879</ele>
        <time>2018-08-16T14:44:48Z</time>
      </trkpt>
      <trkpt lat="47.66125" lon="6.02634">
        <ele>210.21995544434</ele>
        <time>2018-08-16T14:44:59Z</time>
      </trkpt>
      <trkpt lat="47.66098" lon="6.02624">
        <ele>209.68110656738</ele>
        <time>2018-08-16T14:45:11Z</time>
      </trkpt>
      <trkpt lat="47.66071" lon="6.02623">
        <ele>209.2933807373</ele>
        <time>2018-08-16T14:45:16Z</time>
      </trkpt>
      <trkpt lat="47.66059" lon="6.02626">
        <ele>209.19995117188</ele>
        <time>2018-08-16T14:45:28Z</time>
      </trkpt>
      <trkpt lat="47.66046" lon="6.02632">
        <ele>209.07034301758</ele>
        <time>2018-08-16T14:45:34Z</time>
      </trkpt>
      <trkpt lat="47.66019" lon="6.02647">
        <ele>208.56623840332</ele>
        <time>2018-08-16T14:45:45Z</time>
      </trkpt>
      <trkpt lat="47.65984" lon="6.02674">
        <ele>206.89068603516</ele>
        <time>2018-08-16T14:45:55Z</time>
      </trkpt>
      <trkpt lat="47.65932" lon="6.02712">
        <ele>204.3390045166</ele>
        <time>2018-08-16T14:45:56Z</time>
      </trkpt>
      <trkpt lat="47.65885" lon="6.02748">
        <ele>204.15397644043</ele>
        <time>2018-08-16T14:45:56Z</time>
      </trkpt>
      <trkpt lat="47.65838" lon="6.02777">
        <ele>205.02984619141</ele>
        <time>2018-08-16T14:45:57Z</time>
      </trkpt>
      <trkpt lat="47.65788" lon="6.02802">
        <ele>205.95124816895</ele>
        <time>2018-08-16T14:46:03Z</time>
      </trkpt>
      <trkpt lat="47.65788" lon="6.02802">
        <ele>205.95124816895</ele>
        <time>2018-08-16T14:46:08Z</time>
      </trkpt>
      <trkpt lat="47.65715" lon="6.02836">
        <ele>206.68041992188</ele>
        <time>2018-08-16T14:46:12Z</time>
      </trkpt>
      <trkpt lat="47.65646" lon="6.02862">
        <ele>208.15673828125</ele>
        <time>2018-08-16T14:46:22Z</time>
      </trkpt>
      <trkpt lat="47.65538" lon="6.02893">
        <ele>209.04713439941</ele>
        <time>2018-08-16T14:46:39Z</time>
      </trkpt>
      <trkpt lat="47.65492" lon="6.02908">
        <ele>209.25405883789</ele>
        <time>2018-08-16T14:46:53Z</time>
      </trkpt>
      <trkpt lat="47.65457" lon="6.02925">
        <ele>209.26826477051</ele>
        <time>2018-08-16T14:47:07Z</time>
      </trkpt>
      <trkpt lat="47.65378" lon="6.02961">
        <ele>209.4729309082</ele>
        <time>2018-08-16T14:47:15Z</time>
      </trkpt>
      <trkpt lat="47.65303" lon="6.02996">
        <ele>209.27571105957</ele>
        <time>2018-08-16T14:47:23Z</time>
      </trkpt>
      <trkpt lat="47.65274" lon="6.03004">
        <ele>208.54753112793</ele>
        <time>2018-08-16T14:47:30Z</time>
      </trkpt>
      <trkpt lat="47.65241" lon="6.03007">
        <ele>207.77798461914</ele>
        <time>2018-08-16T14:47:39Z</time>
      </trkpt>
      <trkpt lat="47.65215" lon="6.0301">
        <ele>207.44302368164</ele>
        <time>2018-08-16T14:48:04Z</time>
      </trkpt>
      <trkpt lat="47.65199" lon="6.03013">
        <ele>207.27021789551</ele>
        <time>2018-08-16T14:48:33Z</time>
      </trkpt>
      <trkpt lat="47.65188" lon="6.03019">
        <ele>207.28965759277</ele>
        <time>2018-08-16T14:48:54Z</time>
      </trkpt>
      <trkpt lat="47.65151" lon="6.03046">
        <ele>207.29704284668</ele>
        <time>2018-08-16T14:49:14Z</time>
      </trkpt>
      <trkpt lat="47.65133" lon="6.03056">
        <ele>207.29847717285</ele>
        <time>2018-08-16T14:49:33Z</time>
      </trkpt>
      <trkpt lat="47.65123" lon="6.03059">
        <ele>207.2255859375</ele>
        <time>2018-08-16T14:49:42Z</time>
      </trkpt>
      <trkpt lat="47.65115" lon="6.0306">
        <ele>207.11561584473</ele>
        <time>2018-08-16T14:49:51Z</time>
      </trkpt>
      <trkpt lat="47.65101" lon="6.03059">
        <ele>206.79440307617</ele>
        <time>2018-08-16T14:50:18Z</time>
      </trkpt>
      <trkpt lat="47.65075" lon="6.03048">
        <ele>205.97756958008</ele>
        <time>2018-08-16T14:50:18Z</time>
      </trkpt>
      <trkpt lat="47.65063" lon="6.03035">
        <ele>205.50708007812</ele>
        <time>2018-08-16T14:50:34Z</time>
      </trkpt>
      <trkpt lat="47.65026" lon="6.02976">
        <ele>205.27912902832</ele>
        <time>2018-08-16T14:50:52Z</time>
      </trkpt>
      <trkpt lat="47.65013" lon="6.02947">
        <ele>205.46844482422</ele>
        <time>2018-08-16T14:51:27Z</time>
      </trkpt>
      <trkpt lat="47.65001" lon="6.02914">
        <ele>205.49034118652</ele>
        <time>2018-08-16T14:52:33Z</time>
      </trkpt>
      <trkpt lat="47.64989" lon="6.02843">
        <ele>205.25765991211</ele>
        <time>2018-08-16T14:52:33Z</time>
      </trkpt>
      <trkpt lat="47.64969" lon="6.02675">
        <ele>204.01985168457</ele>
        <time>2018-08-16T14:52:34Z</time>
      </trkpt>
      <trkpt lat="47.6496" lon="6.02592">
        <ele>204.90594482422</ele>
        <time>2018-08-16T14:52:47Z</time>
      </trkpt>
      <trkpt lat="47.6496" lon="6.02592">
        <ele>204.90594482422</ele>
        <time>2018-08-16T14:53:01Z</time>
      </trkpt>
      <trkpt lat="47.64947" lon="6.02485">
        <ele>207.25730895996</ele>
        <time>2018-08-16T14:53:11Z</time>
      </trkpt>
      <trkpt lat="47.6494" lon="6.02422">
        <ele>208.97253417969</ele>
        <time>2018-08-16T14:53:15Z</time>
      </trkpt>
      <trkpt lat="47.64938" lon="6.02411">
        <ele>209.29811096191</ele>
        <time>2018-08-16T14:53:19Z</time>
      </trkpt>
      <trkpt lat="47.64932" lon="6.02403">
        <ele>209.73077392578</ele>
        <time>2018-08-16T14:53:22Z</time>
      </trkpt>
      <trkpt lat="47.64925" lon="6.02404">
        <ele>209.9979095459</ele>
        <time>2018-08-16T14:53:37Z</time>
      </trkpt>
      <trkpt lat="47.64909" lon="6.0241">
        <ele>210.4900970459</ele>
        <time>2018-08-16T14:53:41Z</time>
      </trkpt>
      <trkpt lat="47.64866" lon="6.02415">
        <ele>213.67628479004</ele>
        <time>2018-08-16T14:54:01Z</time>
      </trkpt>
      <trkpt lat="47.64843" lon="6.02419">
        <ele>215.25566101074</ele>
        <time>2018-08-16T14:54:11Z</time>
      </trkpt>
      <trkpt lat="47.64829" lon="6.02421">
        <ele>215.93565368652</ele>
        <time>2018-08-16T14:54:17Z</time>
      </trkpt>
      <trkpt lat="47.64808" lon="6.02422">
        <ele>216.92132568359</ele>
        <time>2018-08-16T14:54:28Z</time>
      </trkpt>
      <trkpt lat="47.64762" lon="6.02416">
        <ele>219.66287231445</ele>
        <time>2018-08-16T14:54:40Z</time>
      </trkpt>
      <trkpt lat="47.64719" lon="6.02416">
        <ele>222.79403686523</ele>
        <time>2018-08-16T14:54:45Z</time>
      </trkpt>
      <trkpt lat="47.64712" lon="6.02417">
        <ele>223.26007080078</ele>
        <time>2018-08-16T14:54:57Z</time>
      </trkpt>
      <trkpt lat="47.64697" lon="6.02383">
        <ele>225.5941619873</ele>
        <time>2018-08-16T14:55:03Z</time>
      </trkpt>
      <trkpt lat="47.64679" lon="6.02348">
        <ele>227.45022583008</ele>
        <time>2018-08-16T14:55:14Z</time>
      </trkpt>
      <trkpt lat="47.64642" lon="6.02311">
        <ele>229.19401550293</ele>
        <time>2018-08-16T14:55:24Z</time>
      </trkpt>
      <trkpt lat="47.64525" lon="6.02216">
        <ele>231.75411987305</ele>
        <time>2018-08-16T14:55:25Z</time>
      </trkpt>
      <trkpt lat="47.64514" lon="6.02217">
        <ele>232.51438903809</ele>
        <time>2018-08-16T14:55:25Z</time>
      </trkpt>
      <trkpt lat="47.64507" lon="6.02216">
        <ele>232.9091796875</ele>
        <time>2018-08-16T14:55:26Z</time>
      </trkpt>
      <trkpt lat="47.64481" lon="6.02204">
        <ele>233.44036865234</ele>
        <time>2018-08-16T14:55:32Z</time>
      </trkpt>
      <trkpt lat="47.64455" lon="6.02189">
        <ele>234.37753295898</ele>
        <time>2018-08-16T14:55:37Z</time>
      </trkpt>
      <trkpt lat="47.64438" lon="6.02176">
        <ele>236.05737304688</ele>
        <time>2018-08-16T14:55:41Z</time>
      </trkpt>
      <trkpt lat="47.64413" lon="6.02155">
        <ele>238.0901184082</ele>
        <time>2018-08-16T14:55:51Z</time>
      </trkpt>
      <trkpt lat="47.64413" lon="6.02155">
        <ele>238.0901184082</ele>
        <time>2018-08-16T14:56:08Z</time>
      </trkpt>
      <trkpt lat="47.64415" lon="6.02159">
        <ele>237.81307983398</ele>
        <time>2018-08-16T14:56:22Z</time>
      </trkpt>
      <trkpt lat="47.64442" lon="6.02099">
        <ele>239.09370422363</ele>
        <time>2018-08-16T14:56:36Z</time>
      </trkpt>
      <trkpt lat="47.64475" lon="6.01998">
        <ele>234.24925231934</ele>
        <time>2018-08-16T14:56:44Z</time>
      </trkpt>
      <trkpt lat="47.64502" lon="6.01935">
        <ele>232.46194458008</ele>
        <time>2018-08-16T14:56:52Z</time>
      </trkpt>
      <trkpt lat="47.64505" lon="6.0192">
        <ele>232.94253540039</ele>
        <time>2018-08-16T14:56:59Z</time>
      </trkpt>
      <trkpt lat="47.64505" lon="6.01911">
        <ele>233.19041442871</ele>
        <time>2018-08-16T14:57:08Z</time>
      </trkpt>
      <trkpt lat="47.64496" lon="6.01879">
        <ele>234.00238037109</ele>
        <time>2018-08-16T14:57:33Z</time>
      </trkpt>
      <trkpt lat="47.64458" lon="6.01785">
        <ele>235.94198608398</ele>
        <time>2018-08-16T14:58:02Z</time>
      </trkpt>
      <trkpt lat="47.64445" lon="6.01747">
        <ele>236.84826660156</ele>
        <time>2018-08-16T14:58:23Z</time>
      </trkpt>
      <trkpt lat="47.64448" lon="6.01732">
        <ele>237.28517150879</ele>
        <time>2018-08-16T14:58:43Z</time>
      </trkpt>
      <trkpt lat="47.64459" lon="6.01717">
        <ele>237.72207641602</ele>
        <time>2018-08-16T14:59:02Z</time>
      </trkpt>
      <trkpt lat="47.64503" lon="6.01669">
        <ele>239.36787414551</ele>
        <time>2018-08-16T14:59:11Z</time>
      </trkpt>
      <trkpt lat="47.6451" lon="6.01653">
        <ele>239.76109313965</ele>
        <time>2018-08-16T14:59:20Z</time>
      </trkpt>
      <trkpt lat="47.64511" lon="6.01644">
        <ele>240.11061096191</ele>
        <time>2018-08-16T14:59:47Z</time>
      </trkpt>
      <trkpt lat="47.64508" lon="6.01625">
        <ele>241.43803405762</ele>
        <time>2018-08-16T14:59:47Z</time>
      </trkpt>
      <trkpt lat="47.64506" lon="6.01621">
        <ele>241.81393432617</ele>
        <time>2018-08-16T15:00:03Z</time>
      </trkpt>
      <trkpt lat="47.64506" lon="6.01621">
        <ele>241.81393432617</ele>
        <time>2018-08-16T15:00:21Z</time>
      </trkpt>
      <trkpt lat="47.64385" lon="6.01424">
        <ele>261.53619384766</ele>
        <time>2018-08-16T15:00:56Z</time>
      </trkpt>
      <trkpt lat="47.64348" lon="6.01386">
        <ele>263.93920898438</ele>
        <time>2018-08-16T15:02:02Z</time>
      </trkpt>
      <trkpt lat="47.64317" lon="6.01357">
        <ele>265.41720581055</ele>
        <time>2018-08-16T15:02:10Z</time>
      </trkpt>
      <trkpt lat="47.64291" lon="6.01325">
        <ele>267.10659790039</ele>
        <time>2018-08-16T15:02:10Z</time>
      </trkpt>
      <trkpt lat="47.64284" lon="6.01301">
        <ele>267.76742553711</ele>
        <time>2018-08-16T15:02:11Z</time>
      </trkpt>
      <trkpt lat="47.64274" lon="6.01286">
        <ele>267.87515258789</ele>
        <time>2018-08-16T15:02:24Z</time>
      </trkpt>
      <trkpt lat="47.64257" lon="6.01273">
        <ele>267.69216918945</ele>
        <time>2018-08-16T15:02:38Z</time>
      </trkpt>
      <trkpt lat="47.64244" lon="6.01269">
        <ele>267.4602355957</ele>
        <time>2018-08-16T15:02:48Z</time>
      </trkpt>
      <trkpt lat="47.64238" lon="6.01263">
        <ele>267.36056518555</ele>
        <time>2018-08-16T15:02:52Z</time>
      </trkpt>
      <trkpt lat="47.64226" lon="6.01233">
        <ele>267.13375854492</ele>
        <time>2018-08-16T15:02:56Z</time>
      </trkpt>
      <trkpt lat="47.64188" lon="6.01129">
        <ele>267.27822875977</ele>
        <time>2018-08-16T15:02:59Z</time>
      </trkpt>
      <trkpt lat="47.64177" lon="6.01116">
        <ele>267.24859619141</ele>
        <time>2018-08-16T15:03:14Z</time>
      </trkpt>
      <trkpt lat="47.64138" lon="6.01113">
        <ele>267.8381652832</ele>
        <time>2018-08-16T15:03:18Z</time>
      </trkpt>
      <trkpt lat="47.64106" lon="6.01102">
        <ele>268.6611328125</ele>
        <time>2018-08-16T15:03:38Z</time>
      </trkpt>
      <trkpt lat="47.64089" lon="6.01081">
        <ele>268.73611450195</ele>
        <time>2018-08-16T15:03:48Z</time>
      </trkpt>
      <trkpt lat="47.64043" lon="6.00979">
        <ele>268.58126831055</ele>
        <time>2018-08-16T15:03:54Z</time>
      </trkpt>
      <trkpt lat="47.6398" lon="6.00907">
        <ele>266.83529663086</ele>
        <time>2018-08-16T15:04:05Z</time>
      </trkpt>
      <trkpt lat="47.63915" lon="6.00862">
        <ele>263.4557800293</ele>
        <time>2018-08-16T15:04:17Z</time>
      </trkpt>
      <trkpt lat="47.63836" lon="6.00793">
        <ele>258.09341430664</ele>
        <time>2018-08-16T15:04:22Z</time>
      </trkpt>
      <trkpt lat="47.63808" lon="6.00787">
        <ele>256.72860717773</ele>
        <time>2018-08-16T15:04:34Z</time>
      </trkpt>
      <trkpt lat="47.63775" lon="6.00799">
        <ele>255.54583740234</ele>
        <time>2018-08-16T15:04:40Z</time>
      </trkpt>
      <trkpt lat="47.63481" lon="6.01309">
        <ele>249.79103088379</ele>
        <time>2018-08-16T15:04:51Z</time>
      </trkpt>
      <trkpt lat="47.63481" lon="6.01309">
        <ele>249.79103088379</ele>
        <time>2018-08-16T15:05:01Z</time>
      </trkpt>
      <trkpt lat="47.63457" lon="6.01259">
        <ele>247.95147705078</ele>
        <time>2018-08-16T15:05:02Z</time>
      </trkpt>
      <trkpt lat="47.63399" lon="6.01153">
        <ele>244.24781799316</ele>
        <time>2018-08-16T15:05:02Z</time>
      </trkpt>
      <trkpt lat="47.63397" lon="6.01144">
        <ele>244.40179443359</ele>
        <time>2018-08-16T15:05:03Z</time>
      </trkpt>
      <trkpt lat="47.63393" lon="6.011">
        <ele>245.45727539062</ele>
        <time>2018-08-16T15:05:09Z</time>
      </trkpt>
      <trkpt lat="47.6339" lon="6.00977">
        <ele>242.61875915527</ele>
        <time>2018-08-16T15:05:14Z</time>
      </trkpt>
      <trkpt lat="47.63388" lon="6.00949">
        <ele>241.78022766113</ele>
        <time>2018-08-16T15:05:18Z</time>
      </trkpt>
      <trkpt lat="47.63362" lon="6.00867">
        <ele>240.00617980957</ele>
        <time>2018-08-16T15:05:28Z</time>
      </trkpt>
      <trkpt lat="47.6336" lon="6.00854">
        <ele>240.03607177734</ele>
        <time>2018-08-16T15:05:45Z</time>
      </trkpt>
      <trkpt lat="47.63359" lon="6.0079">
        <ele>240.83605957031</ele>
        <time>2018-08-16T15:05:59Z</time>
      </trkpt>
      <trkpt lat="47.63356" lon="6.00729">
        <ele>243.09999084473</ele>
        <time>2018-08-16T15:06:13Z</time>
      </trkpt>
      <trkpt lat="47.63349" lon="6.00394">
        <ele>245.59782409668</ele>
        <time>2018-08-16T15:06:21Z</time>
      </trkpt>
      <trkpt lat="47.63403" lon="6.00079">
        <ele>247.35534667969</ele>
        <time>2018-08-16T15:06:29Z</time>
      </trkpt>
      <trkpt lat="47.63436" lon="5.99991">
        <ele>246.30426025391</ele>
        <time>2018-08-16T15:06:36Z</time>
      </trkpt>
      <trkpt lat="47.63438" lon="5.99989">
        <ele>246.2827911377</ele>
        <time>2018-08-16T15:06:45Z</time>
      </trkpt>
      <trkpt lat="47.63428" lon="5.99961">
        <ele>247.76414489746</ele>
        <time>2018-08-16T15:07:10Z</time>
      </trkpt>
      <trkpt lat="47.63422" lon="5.99938">
        <ele>248.94825744629</ele>
        <time>2018-08-16T15:07:39Z</time>
      </trkpt>
      <trkpt lat="47.63421" lon="5.9991">
        <ele>249.90786743164</ele>
        <time>2018-08-16T15:08:00Z</time>
      </trkpt>
      <trkpt lat="47.63417" lon="5.99869">
        <ele>251.17338562012</ele>
        <time>2018-08-16T15:08:20Z</time>
      </trkpt>
      <trkpt lat="47.63419" lon="5.9984">
        <ele>251.47624206543</ele>
        <time>2018-08-16T15:08:39Z</time>
      </trkpt>
      <trkpt lat="47.63418" lon="5.99803">
        <ele>251.70928955078</ele>
        <time>2018-08-16T15:08:48Z</time>
      </trkpt>
      <trkpt lat="47.63415" lon="5.9977">
        <ele>252.07608032227</ele>
        <time>2018-08-16T15:08:57Z</time>
      </trkpt>
      <trkpt lat="47.63412" lon="5.99733">
        <ele>252.46397399902</ele>
        <time>2018-08-16T15:09:24Z</time>
      </trkpt>
      <trkpt lat="47.63404" lon="5.9969">
        <ele>252.84010314941</ele>
        <time>2018-08-16T15:09:24Z</time>
      </trkpt>
      <trkpt lat="47.63385" lon="5.99597">
        <ele>251.31362915039</ele>
        <time>2018-08-16T15:09:40Z</time>
      </trkpt>
      <trkpt lat="47.63383" lon="5.99574">
        <ele>250.28829956055</ele>
        <time>2018-08-16T15:09:58Z</time>
      </trkpt>
      <trkpt lat="47.63384" lon="5.99548">
        <ele>248.73095703125</ele>
        <time>2018-08-16T15:10:33Z</time>
      </trkpt>
      <trkpt lat="47.63382" lon="5.99523">
        <ele>247.12257385254</ele>
        <time>2018-08-16T15:11:39Z</time>
      </trkpt>
      <trkpt lat="47.63391" lon="5.99517">
        <ele>247.13391113281</ele>
        <time>2018-08-16T15:11:47Z</time>
      </trkpt>
      <trkpt lat="47.63417" lon="5.99491">
        <ele>247.31390380859</ele>
        <time>2018-08-16T15:13:38Z</time>
      </trkpt>
      <trkpt lat="47.63452" lon="5.99452">
        <ele>247.64886474609</ele>
        <time>2018-08-16T15:13:38Z</time>
      </trkpt>
      <trkpt lat="47.63484" lon="5.9942">
        <ele>247.58715820312</ele>
        <time>2018-08-16T15:13:39Z</time>
      </trkpt>
      <trkpt lat="47.635" lon="5.99408">
        <ele>247.52890014648</ele>
        <time>2018-08-16T15:13:52Z</time>
      </trkpt>
      <trkpt lat="47.63515" lon="5.994">
        <ele>247.61628723145</ele>
        <time>2018-08-16T15:14:06Z</time>
      </trkpt>
      <trkpt lat="47.6355" lon="5.99376">
        <ele>247.56660461426</ele>
        <time>2018-08-16T15:14:16Z</time>
      </trkpt>
      <trkpt lat="47.63576" lon="5.99349">
        <ele>247.51235961914</ele>
        <time>2018-08-16T15:14:20Z</time>
      </trkpt>
      <trkpt lat="47.63583" lon="5.99339">
        <ele>247.42497253418</ele>
        <time>2018-08-16T15:14:24Z</time>
      </trkpt>
      <trkpt lat="47.63583" lon="5.99339">
        <ele>247.42497253418</ele>
        <time>2018-08-16T15:14:27Z</time>
      </trkpt>
      <trkpt lat="47.6362" lon="5.99272">
        <ele>246.08222961426</ele>
        <time>2018-08-16T15:14:42Z</time>
      </trkpt>
      <trkpt lat="47.63643" lon="5.99237">
        <ele>245.22297668457</ele>
        <time>2018-08-16T15:14:46Z</time>
      </trkpt>
      <trkpt lat="47.63663" lon="5.9921">
        <ele>244.77006530762</ele>
        <time>2018-08-16T15:15:06Z</time>
      </trkpt>
      <trkpt lat="47.63724" lon="5.99125">
        <ele>243.61224365234</ele>
        <time>2018-08-16T15:15:16Z</time>
      </trkpt>
      <trkpt lat="47.63753" lon="5.99077">
        <ele>244.05604553223</ele>
        <time>2018-08-16T15:15:22Z</time>
      </trkpt>
      <trkpt lat="47.63776" lon="5.99032">
        <ele>244.49794006348</ele>
        <time>2018-08-16T15:15:33Z</time>
      </trkpt>
      <trkpt lat="47.63815" lon="5.98943">
        <ele>246.64555358887</ele>
        <time>2018-08-16T15:15:45Z</time>
      </trkpt>
      <trkpt lat="47.63914" lon="5.98952">
        <ele>248.52619934082</ele>
        <time>2018-08-16T15:15:50Z</time>
      </trkpt>
      <trkpt lat="47.64102" lon="5.98969">
        <ele>247.17630004883</ele>
        <time>2018-08-16T15:16:02Z</time>
      </trkpt>
      <trkpt lat="47.64134" lon="5.98975">
        <ele>245.65925598145</ele>
        <time>2018-08-16T15:16:08Z</time>
      </trkpt>
      <trkpt lat="47.64134" lon="5.98975">
        <ele>245.65925598145</ele>
        <time>2018-08-16T15:16:19Z</time>
      </trkpt>
      <trkpt lat="47.6414" lon="5.98975">
        <ele>245.37913513184</ele>
        <time>2018-08-16T15:16:29Z</time>
      </trkpt>
      <trkpt lat="47.64146" lon="5.98973">
        <ele>245.12538146973</ele>
        <time>2018-08-16T15:16:30Z</time>
      </trkpt>
      <trkpt lat="47.64153" lon="5.98964">
        <ele>244.94136047363</ele>
        <time>2018-08-16T15:16:30Z</time>
      </trkpt>
      <trkpt lat="47.64161" lon="5.98928">
        <ele>244.6350402832</ele>
        <time>2018-08-16T15:16:31Z</time>
      </trkpt>
      <trkpt lat="47.64165" lon="5.98919">
        <ele>244.41513061523</ele>
        <time>2018-08-16T15:16:37Z</time>
      </trkpt>
      <trkpt lat="47.64173" lon="5.98915">
        <ele>244.00526428223</ele>
        <time>2018-08-16T15:16:42Z</time>
      </trkpt>
      <trkpt lat="47.64189" lon="5.98918">
        <ele>243.2742767334</ele>
        <time>2018-08-16T15:16:46Z</time>
      </trkpt>
      <trkpt lat="47.64224" lon="5.98925">
        <ele>241.83047485352</ele>
        <time>2018-08-16T15:16:56Z</time>
      </trkpt>
      <trkpt lat="47.64286" lon="5.98934">
        <ele>239.59060668945</ele>
        <time>2018-08-16T15:17:13Z</time>
      </trkpt>
      <trkpt lat="47.64308" lon="5.98763">
        <ele>233.32548522949</ele>
        <time>2018-08-16T15:17:27Z</time>
      </trkpt>
      <trkpt lat="47.64347" lon="5.98446">
        <ele>227.50646972656</ele>
        <time>2018-08-16T15:17:41Z</time>
      </trkpt>
      <trkpt lat="47.64378" lon="5.98187">
        <ele>220.04524230957</ele>
        <time>2018-08-16T15:17:49Z</time>
      </trkpt>
      <trkpt lat="47.64378" lon="5.98187">
        <ele>220.04524230957</ele>
        <time>2018-08-16T15:17:57Z</time>
      </trkpt>
      <trkpt lat="47.64393" lon="5.98073">
        <ele>218.54066467285</ele>
        <time>2018-08-16T15:18:04Z</time>
      </trkpt>
      <trkpt lat="47.644" lon="5.98034">
        <ele>218.31364440918</ele>
        <time>2018-08-16T15:18:13Z</time>
      </trkpt>
      <trkpt lat="47.64412" lon="5.97986">
        <ele>218.18260192871</ele>
        <time>2018-08-16T15:18:38Z</time>
      </trkpt>
      <trkpt lat="47.64426" lon="5.97949">
        <ele>218.22441101074</ele>
        <time>2018-08-16T15:19:07Z</time>
      </trkpt>
      <trkpt lat="47.64436" lon="5.97927">
        <ele>218.24945068359</ele>
        <time>2018-08-16T15:19:28Z</time>
      </trkpt>
      <trkpt lat="47.64444" lon="5.97913">
        <ele>218.42590332031</ele>
        <time>2018-08-16T15:19:48Z</time>
      </trkpt>
      <trkpt lat="47.64456" lon="5.97901">
        <ele>218.65650939941</ele>
        <time>2018-08-16T15:20:07Z</time>
      </trkpt>
      <trkpt lat="47.64485" lon="5.97876">
        <ele>219.01068115234</ele>
        <time>2018-08-16T15:20:16Z</time>
      </trkpt>
      <trkpt lat="47.64495" lon="5.97864">
        <ele>219.01289367676</ele>
        <time>2018-08-16T15:20:25Z</time>
      </trkpt>
      <trkpt lat="47.64503" lon="5.9785">
        <ele>219.13409423828</ele>
        <time>2018-08-16T15:20:52Z</time>
      </trkpt>
      <trkpt lat="47.64516" lon="5.97823">
        <ele>219.30885314941</ele>
        <time>2018-08-16T15:20:52Z</time>
      </trkpt>
      <trkpt lat="47.64517" lon="5.97823">
        <ele>219.35255432129</ele>
        <time>2018-08-16T15:21:08Z</time>
      </trkpt>
      <trkpt lat="47.6452" lon="5.97821">
        <ele>219.45449829102</ele>
        <time>2018-08-16T15:21:26Z</time>
      </trkpt>
      <trkpt lat="47.64523" lon="5.97816">
        <ele>219.51274108887</ele>
        <time>2018-08-16T15:22:01Z</time>
      </trkpt>
      <trkpt lat="47.64541" lon="5.9781">
        <ele>220.21179199219</ele>
        <time>2018-08-16T15:23:07Z</time>
      </trkpt>
      <trkpt lat="47.64551" lon="5.978">
        <ele>220.5030670166</ele>
        <time>2018-08-16T15:23:15Z</time>
      </trkpt>
      <trkpt lat="47.64566" lon="5.97792">
        <ele>221.02027893066</ele>
        <time>2018-08-16T15:25:06Z</time>
      </trkpt>
      <trkpt lat="47.64629" lon="5.97776">
        <ele>222.62226867676</ele>
        <time>2018-08-16T15:25:06Z</time>
      </trkpt>
      <trkpt lat="47.64724" lon="5.97758">
        <ele>225.13891601562</ele>
        <time>2018-08-16T15:25:52Z</time>
      </trkpt>
      <trkpt lat="47.64827" lon="5.97734">
        <ele>228.51313781738</ele>
        <time>2018-08-16T15:26:02Z</time>
      </trkpt>
      <trkpt lat="47.64942" lon="5.97709">
        <ele>229.96487426758</ele>
        <time>2018-08-16T15:26:06Z</time>
      </trkpt>
      <trkpt lat="47.64942" lon="5.97709">
        <ele>229.96487426758</ele>
        <time>2018-08-16T15:26:10Z</time>
      </trkpt>
      <trkpt lat="47.64949" lon="5.97708">
        <ele>229.94219970703</ele>
        <time>2018-08-16T15:26:15Z</time>
      </trkpt>
      <trkpt lat="47.64966" lon="5.97706">
        <ele>229.89506530762</ele>
        <time>2018-08-16T15:26:20Z</time>
      </trkpt>
      <trkpt lat="47.64984" lon="5.97701">
        <ele>229.56999206543</ele>
        <time>2018-08-16T15:26:24Z</time>
      </trkpt>
      <trkpt lat="47.65018" lon="5.97691">
        <ele>227.76577758789</ele>
        <time>2018-08-16T15:26:30Z</time>
      </trkpt>
      <trkpt lat="47.65046" lon="5.97685">
        <ele>226.06346130371</ele>
        <time>2018-08-16T15:26:38Z</time>
      </trkpt>
      <trkpt lat="47.65079" lon="5.97669">
        <ele>222.37693786621</ele>
        <time>2018-08-16T15:26:45Z</time>
      </trkpt>
      <trkpt lat="47.65093" lon="5.97657">
        <ele>220.72367858887</ele>
        <time>2018-08-16T15:26:52Z</time>
      </trkpt>
      <trkpt lat="47.65107" lon="5.97643">
        <ele>218.29719543457</ele>
        <time>2018-08-16T15:26:59Z</time>
      </trkpt>
      <trkpt lat="47.65113" lon="5.97637">
        <ele>217.26443481445</ele>
        <time>2018-08-16T15:27:12Z</time>
      </trkpt>
      <trkpt lat="47.6512" lon="5.97641">
        <ele>216.54502868652</ele>
        <time>2018-08-16T15:27:21Z</time>
      </trkpt>
      <trkpt lat="47.65132" lon="5.97647">
        <ele>215.25</ele>
        <time>2018-08-16T15:27:29Z</time>
      </trkpt>
      <trkpt lat="47.65147" lon="5.9765">
        <ele>213.42332458496</ele>
        <time>2018-08-16T15:27:36Z</time>
      </trkpt>
      <trkpt lat="47.65161" lon="5.97649">
        <ele>211.57318115234</ele>
        <time>2018-08-16T15:27:42Z</time>
      </trkpt>
      <trkpt lat="47.65194" lon="5.97636">
        <ele>208.00634765625</ele>
        <time>2018-08-16T15:27:48Z</time>
      </trkpt>
      <trkpt lat="47.65278" lon="5.97601">
        <ele>206</ele>
        <time>2018-08-16T15:27:53Z</time>
      </trkpt>
      <trkpt lat="47.65329" lon="5.9758">
        <ele>205.91905212402</ele>
        <time>2018-08-16T15:27:55Z</time>
      </trkpt>
      <trkpt lat="47.65471" lon="5.97524">
        <ele>205.46366882324</ele>
        <time>2018-08-16T15:27:55Z</time>
      </trkpt>
      <trkpt lat="47.656" lon="5.9747">
        <ele>203.0803527832</ele>
        <time>2018-08-16T15:27:56Z</time>
      </trkpt>
      <trkpt lat="47.65727" lon="5.9742">
        <ele>203.96911621094</ele>
        <time>2018-08-16T15:28:09Z</time>
      </trkpt>
      <trkpt lat="47.65838" lon="5.97377">
        <ele>205.54647827148</ele>
        <time>2018-08-16T15:28:23Z</time>
      </trkpt>
      <trkpt lat="47.65917" lon="5.97344">
        <ele>205.30299377441</ele>
        <time>2018-08-16T15:28:33Z</time>
      </trkpt>
      <trkpt lat="47.65962" lon="5.97327">
        <ele>204.92778015137</ele>
        <time>2018-08-16T15:28:37Z</time>
      </trkpt>
      <trkpt lat="47.66041" lon="5.97295">
        <ele>204.36581420898</ele>
        <time>2018-08-16T15:28:41Z</time>
      </trkpt>
      <trkpt lat="47.66112" lon="5.97267">
        <ele>204.40492248535</ele>
        <time>2018-08-16T15:28:44Z</time>
      </trkpt>
      <trkpt lat="47.66112" lon="5.97267">
        <ele>204.40492248535</ele>
        <time>2018-08-16T15:28:59Z</time>
      </trkpt>
      <trkpt lat="47.66247" lon="5.97211">
        <ele>207.74662780762</ele>
        <time>2018-08-16T15:29:03Z</time>
      </trkpt>
      <trkpt lat="47.6624" lon="5.97295">
        <ele>207.69735717773</ele>
        <time>2018-08-16T15:29:23Z</time>
      </trkpt>
      <trkpt lat="47.66235" lon="5.97402">
        <ele>208.62542724609</ele>
        <time>2018-08-16T15:29:33Z</time>
      </trkpt>
      <trkpt lat="47.6621" lon="5.97399">
        <ele>208.1817779541</ele>
        <time>2018-08-16T15:29:39Z</time>
      </trkpt>
      <trkpt lat="47.66203" lon="5.97403">
        <ele>208.0361328125</ele>
        <time>2018-08-16T15:29:50Z</time>
      </trkpt>
      <trkpt lat="47.66197" lon="5.97432">
        <ele>208.28372192383</ele>
        <time>2018-08-16T15:30:02Z</time>
      </trkpt>
      <trkpt lat="47.66186" lon="5.97506">
        <ele>209.04103088379</ele>
        <time>2018-08-16T15:30:07Z</time>
      </trkpt>
      <trkpt lat="47.6619" lon="5.97525">
        <ele>209.43423461914</ele>
        <time>2018-08-16T15:30:19Z</time>
      </trkpt>
      <trkpt lat="47.66214" lon="5.97549">
        <ele>210.47300720215</ele>
        <time>2018-08-16T15:30:25Z</time>
      </trkpt>
      <trkpt lat="47.66219" lon="5.97559">
        <ele>210.71852111816</ele>
        <time>2018-08-16T15:30:36Z</time>
      </trkpt>
      <trkpt lat="47.66226" lon="5.97584">
        <ele>211.15521240234</ele>
        <time>2018-08-16T15:30:46Z</time>
      </trkpt>
      <trkpt lat="47.66227" lon="5.97607">
        <ele>211.27156066895</ele>
        <time>2018-08-16T15:30:47Z</time>
      </trkpt>
      <trkpt lat="47.66231" lon="5.97637">
        <ele>211.46423339844</ele>
        <time>2018-08-16T15:30:47Z</time>
      </trkpt>
      <trkpt lat="47.66174" lon="5.97722">
        <ele>210.86100769043</ele>
        <time>2018-08-16T15:30:48Z</time>
      </trkpt>
      <trkpt lat="47.66143" lon="5.97778">
        <ele>210.73820495605</ele>
        <time>2018-08-16T15:30:54Z</time>
      </trkpt>
      <trkpt lat="47.66056" lon="5.97959">
        <ele>210.57312011719</ele>
        <time>2018-08-16T15:30:59Z</time>
      </trkpt>
      <trkpt lat="47.66018" lon="5.98033">
        <ele>210.15408325195</ele>
        <time>2018-08-16T15:31:03Z</time>
      </trkpt>
      <trkpt lat="47.65988" lon="5.98088">
        <ele>209.9602355957</ele>
        <time>2018-08-16T15:31:13Z</time>
      </trkpt>
      <trkpt lat="47.659" lon="5.98238">
        <ele>208.1589050293</ele>
        <time>2018-08-16T15:31:30Z</time>
      </trkpt>
      <trkpt lat="47.65882" lon="5.98272">
        <ele>208.16087341309</ele>
        <time>2018-08-16T15:31:44Z</time>
      </trkpt>
      <trkpt lat="47.65866" lon="5.98297">
        <ele>208.33160400391</ele>
        <time>2018-08-16T15:31:58Z</time>
      </trkpt>
      <trkpt lat="47.65861" lon="5.98304">
        <ele>208.43354797363</ele>
        <time>2018-08-16T15:32:06Z</time>
      </trkpt>
      <trkpt lat="47.65865" lon="5.98318">
        <ele>208.63743591309</ele>
        <time>2018-08-16T15:32:14Z</time>
      </trkpt>
      <trkpt lat="47.65868" lon="5.98327">
        <ele>208.76850891113</ele>
        <time>2018-08-16T15:32:21Z</time>
      </trkpt>
      <trkpt lat="47.65868" lon="5.98339">
        <ele>208.94326782227</ele>
        <time>2018-08-16T15:32:30Z</time>
      </trkpt>
      <trkpt lat="47.65864" lon="5.98359">
        <ele>210.13757324219</ele>
        <time>2018-08-16T15:32:55Z</time>
      </trkpt>
      <trkpt lat="47.65841" lon="5.98419">
        <ele>213.67770385742</ele>
        <time>2018-08-16T15:33:24Z</time>
      </trkpt>
      <trkpt lat="47.65816" lon="5.9847">
        <ele>216.0489654541</ele>
        <time>2018-08-16T15:33:45Z</time>
      </trkpt>
      <trkpt lat="47.659" lon="5.98533">
        <ele>222.7389831543</ele>
        <time>2018-08-16T15:34:05Z</time>
      </trkpt>
      <trkpt lat="47.65905" lon="5.98541">
        <ele>223.36552429199</ele>
        <time>2018-08-16T15:34:24Z</time>
      </trkpt>
      <trkpt lat="47.65907" lon="5.98554">
        <ele>224.29772949219</ele>
        <time>2018-08-16T15:34:33Z</time>
      </trkpt>
      <trkpt lat="47.65905" lon="5.98622">
        <ele>228.25901794434</ele>
        <time>2018-08-16T15:34:42Z</time>
      </trkpt>
      <trkpt lat="47.65905" lon="5.98622">
        <ele>228.25901794434</ele>
        <time>2018-08-16T15:35:09Z</time>
      </trkpt>
      <trkpt lat="47.65901" lon="5.98734">
        <ele>234.78349304199</ele>
        <time>2018-08-16T15:35:09Z</time>
      </trkpt>
      <trkpt lat="47.65894" lon="5.98791">
        <ele>237.7684173584</ele>
        <time>2018-08-16T15:35:25Z</time>
      </trkpt>
      <trkpt lat="47.65874" lon="5.98948">
        <ele>242.69570922852</ele>
        <time>2018-08-16T15:35:43Z</time>
      </trkpt>
      <trkpt lat="47.65874" lon="5.98971">
        <ele>243.20776367188</ele>
        <time>2018-08-16T15:36:18Z</time>
      </trkpt>
      <trkpt lat="47.65879" lon="5.98978">
        <ele>243.35716247559</ele>
        <time>2018-08-16T15:37:24Z</time>
      </trkpt>
      <trkpt lat="47.65884" lon="5.98981">
        <ele>243.44606018066</ele>
        <time>2018-08-16T15:37:32Z</time>
      </trkpt>
      <trkpt lat="47.65974" lon="5.99017">
        <ele>243.9037322998</ele>
        <time>2018-08-16T15:39:23Z</time>
      </trkpt>
      <trkpt lat="47.65982" lon="5.99023">
        <ele>243.93869018555</ele>
        <time>2018-08-16T15:39:23Z</time>
      </trkpt>
      <trkpt lat="47.65989" lon="5.99036">
        <ele>244.07012939453</ele>
        <time>2018-08-16T15:40:09Z</time>
      </trkpt>
      <trkpt lat="47.66176" lon="5.99389">
        <ele>249.89083862305</ele>
        <time>2018-08-16T15:40:19Z</time>
      </trkpt>
      <trkpt lat="47.66209" lon="5.99453">
        <ele>250.25952148438</ele>
        <time>2018-08-16T15:40:23Z</time>
      </trkpt>
      <trkpt lat="47.66214" lon="5.99463">
        <ele>250.30570983887</ele>
        <time>2018-08-16T15:40:27Z</time>
      </trkpt>
      <trkpt lat="47.66209" lon="5.99475">
        <ele>250.5637512207</ele>
        <time>2018-08-16T15:40:32Z</time>
      </trkpt>
      <trkpt lat="47.66195" lon="5.99503">
        <ele>251.17622375488</ele>
        <time>2018-08-16T15:40:37Z</time>
      </trkpt>
      <trkpt lat="47.66171" lon="5.99571">
        <ele>250.53434753418</ele>
        <time>2018-08-16T15:40:41Z</time>
      </trkpt>
      <trkpt lat="47.66143" lon="5.99652">
        <ele>248.84706115723</ele>
        <time>2018-08-16T15:40:47Z</time>
      </trkpt>
      <trkpt lat="47.66118" lon="5.99739">
        <ele>246.16720581055</ele>
        <time>2018-08-16T15:40:55Z</time>
      </trkpt>
      <trkpt lat="47.661" lon="5.99795">
        <ele>244.62998962402</ele>
        <time>2018-08-16T15:41:02Z</time>
      </trkpt>
      <trkpt lat="47.66065" lon="5.99877">
        <ele>242.45626831055</ele>
        <time>2018-08-16T15:41:09Z</time>
      </trkpt>
      <trkpt lat="47.66019" lon="6.00005">
        <ele>239.89846801758</ele>
        <time>2018-08-16T15:41:16Z</time>
      </trkpt>
      <trkpt lat="47.66001" lon="6.0005">
        <ele>239.79287719727</ele>
        <time>2018-08-16T15:41:29Z</time>
      </trkpt>
      <trkpt lat="47.65982" lon="6.00084">
        <ele>239.28695678711</ele>
        <time>2018-08-16T15:41:38Z</time>
      </trkpt>
      <trkpt lat="47.65951" lon="6.00136">
        <ele>237.89404296875</ele>
        <time>2018-08-16T15:41:46Z</time>
      </trkpt>
      <trkpt lat="47.65919" lon="6.0018">
        <ele>234.9140625</ele>
        <time>2018-08-16T15:41:53Z</time>
      </trkpt>
      <trkpt lat="47.65919" lon="6.0018">
        <ele>234.9140625</ele>
        <time>2018-08-16T15:41:59Z</time>
      </trkpt>
      <trkpt lat="47.65851" lon="6.00274">
        <ele>228.92723083496</ele>
        <time>2018-08-16T15:42:05Z</time>
      </trkpt>
      <trkpt lat="47.65827" lon="6.00305">
        <ele>226.65539550781</ele>
        <time>2018-08-16T15:42:10Z</time>
      </trkpt>
      <trkpt lat="47.65819" lon="6.00321">
        <ele>225.60266113281</ele>
        <time>2018-08-16T15:42:12Z</time>
      </trkpt>
      <trkpt lat="47.65797" lon="6.00346">
        <ele>223.46157836914</ele>
        <time>2018-08-16T15:42:12Z</time>
      </trkpt>
      <trkpt lat="47.65786" lon="6.00362">
        <ele>222.43148803711</ele>
        <time>2018-08-16T15:42:25Z</time>
      </trkpt>
      <trkpt lat="47.6577" lon="6.00386">
        <ele>221.0499420166</ele>
        <time>2018-08-16T15:42:31Z</time>
      </trkpt>
      <trkpt lat="47.65746" lon="6.00417">
        <ele>219.2498626709</ele>
        <time>2018-08-16T15:42:34Z</time>
      </trkpt>
      <trkpt lat="47.65714" lon="6.00453">
        <ele>216.95007324219</ele>
        <time>2018-08-16T15:42:37Z</time>
      </trkpt>
      <trkpt lat="47.65686" lon="6.00508">
        <ele>215.13401794434</ele>
        <time>2018-08-16T15:42:40Z</time>
      </trkpt>
      <trkpt lat="47.65666" lon="6.00552">
        <ele>214.07594299316</ele>
        <time>2018-08-16T15:42:52Z</time>
      </trkpt>
      <trkpt lat="47.65662" lon="6.00563">
        <ele>213.97770690918</ele>
        <time>2018-08-16T15:43:00Z</time>
      </trkpt>
      <trkpt lat="47.65674" lon="6.00579">
        <ele>214.22671508789</ele>
        <time>2018-08-16T15:43:03Z</time>
      </trkpt>
      <trkpt lat="47.65695" lon="6.00605">
        <ele>214.48974609375</ele>
        <time>2018-08-16T15:43:05Z</time>
      </trkpt>
      <trkpt lat="47.65723" lon="6.00641">
        <ele>214.46322631836</ele>
        <time>2018-08-16T15:43:10Z</time>
      </trkpt>
      <trkpt lat="47.6578" lon="6.00714">
        <ele>214.8603515625</ele>
        <time>2018-08-16T15:43:17Z</time>
      </trkpt>
      <trkpt lat="47.65902" lon="6.00868">
        <ele>218.88241577148</ele>
        <time>2018-08-16T15:43:23Z</time>
      </trkpt>
      <trkpt lat="47.65999" lon="6.00989">
        <ele>220.00798034668</ele>
        <time>2018-08-16T15:43:25Z</time>
      </trkpt>
      <trkpt lat="47.66143" lon="6.01174">
        <ele>224.75115966797</ele>
        <time>2018-08-16T15:43:31Z</time>
      </trkpt>
      <trkpt lat="47.66207" lon="6.01255">
        <ele>225.41542053223</ele>
        <time>2018-08-16T15:43:40Z</time>
      </trkpt>
      <trkpt lat="47.66231" lon="6.01278">
        <ele>224.25276184082</ele>
        <time>2018-08-16T15:43:47Z</time>
      </trkpt>
      <trkpt lat="47.66254" lon="6.01295">
        <ele>223.48287963867</ele>
        <time>2018-08-16T15:43:56Z</time>
      </trkpt>
      <trkpt lat="47.66267" lon="6.01301">
        <ele>223.2604675293</ele>
        <time>2018-08-16T15:44:04Z</time>
      </trkpt>
      <trkpt lat="47.6628" lon="6.01306">
        <ele>223.10180664062</ele>
        <time>2018-08-16T15:44:08Z</time>
      </trkpt>
      <trkpt lat="47.66281" lon="6.01306">
        <ele>223.15336608887</ele>
        <time>2018-08-16T15:44:18Z</time>
      </trkpt>
      <trkpt lat="47.66403" lon="6.01323">
        <ele>225.71182250977</ele>
        <time>2018-08-16T15:44:22Z</time>
      </trkpt>
      <trkpt lat="47.66477" lon="6.01329">
        <ele>227.30528259277</ele>
        <time>2018-08-16T15:44:24Z</time>
      </trkpt>
      <trkpt lat="47.66507" lon="6.01334">
        <ele>229.06170654297</ele>
        <time>2018-08-16T15:44:33Z</time>
      </trkpt>
      <trkpt lat="47.6653" lon="6.01346">
        <ele>229.41703796387</ele>
        <time>2018-08-16T15:44:40Z</time>
      </trkpt>
      <trkpt lat="47.6656" lon="6.01362">
        <ele>229.9839630127</ele>
        <time>2018-08-16T15:44:42Z</time>
      </trkpt>
      <trkpt lat="47.6658" lon="6.01376">
        <ele>229.52104187012</ele>
        <time>2018-08-16T15:44:46Z</time>
      </trkpt>
      <trkpt lat="47.66659" lon="6.01426">
        <ele>227.00704956055</ele>
        <time>2018-08-16T15:44:52Z</time>
      </trkpt>
      <trkpt lat="47.66685" lon="6.01438">
        <ele>227.1393737793</ele>
        <time>2018-08-16T15:45:02Z</time>
      </trkpt>
      <trkpt lat="47.6673" lon="6.01461">
        <ele>225.49501037598</ele>
        <time>2018-08-16T15:45:05Z</time>
      </trkpt>
      <trkpt lat="47.66781" lon="6.01477">
        <ele>224.60163879395</ele>
        <time>2018-08-16T15:45:07Z</time>
      </trkpt>
      <trkpt lat="47.66803" lon="6.01482">
        <ele>224.68632507324</ele>
        <time>2018-08-16T15:45:09Z</time>
      </trkpt>
      <trkpt lat="47.66832" lon="6.01495">
        <ele>224.04551696777</ele>
        <time>2018-08-16T15:45:16Z</time>
      </trkpt>
      <trkpt lat="47.66849" lon="6.01505">
        <ele>222.89593505859</ele>
        <time>2018-08-16T15:45:24Z</time>
      </trkpt>
      <trkpt lat="47.66886" lon="6.01534">
        <ele>220.10893249512</ele>
        <time>2018-08-16T15:45:31Z</time>
      </trkpt>
      <trkpt lat="47.66993" lon="6.01627">
        <ele>218.18067932129</ele>
        <time>2018-08-16T15:45:38Z</time>
      </trkpt>
      <trkpt lat="47.67091" lon="6.01709">
        <ele>218.65144348145</ele>
        <time>2018-08-16T15:45:41Z</time>
      </trkpt>
      <trkpt lat="47.6717" lon="6.01778">
        <ele>217.56936645508</ele>
        <time>2018-08-16T15:45:45Z</time>
      </trkpt>
      <trkpt lat="47.67162" lon="6.01808">
        <ele>213.99836730957</ele>
        <time>2018-08-16T15:45:53Z</time>
      </trkpt>
      <trkpt lat="47.67136" lon="6.01878">
        <ele>210.01794433594</ele>
        <time>2018-08-16T15:46:04Z</time>
      </trkpt>
      <trkpt lat="47.671" lon="6.01968">
        <ele>209.0305480957</ele>
        <time>2018-08-16T15:46:19Z</time>
      </trkpt>
      <trkpt lat="47.67088" lon="6.02002">
        <ele>208.8557434082</ele>
        <time>2018-08-16T15:46:33Z</time>
      </trkpt>
      <trkpt lat="47.67088" lon="6.02012">
        <ele>208.783203125</ele>
        <time>2018-08-16T15:46:47Z</time>
      </trkpt>
      <trkpt lat="47.6709" lon="6.02021">
        <ele>208.75090026855</ele>
        <time>2018-08-16T15:47:01Z</time>
      </trkpt>
      <trkpt lat="47.67132" lon="6.0211">
        <ele>210.17517089844</ele>
        <time>2018-08-16T15:47:01Z</time>
      </trkpt>
      <trkpt lat="47.67197" lon="6.0225">
        <ele>209.24429321289</ele>
        <time>2018-08-16T15:47:02Z</time>
      </trkpt>
      <trkpt lat="47.67259" lon="6.02373">
        <ele>208.68885803223</ele>
        <time>2018-08-16T15:47:15Z</time>
      </trkpt>
      <trkpt lat="47.67278" lon="6.02415">
        <ele>207.53804016113</ele>
        <time>2018-08-16T15:47:29Z</time>
      </trkpt>
      <trkpt lat="47.6729" lon="6.02478">
        <ele>206.23908996582</ele>
        <time>2018-08-16T15:47:39Z</time>
      </trkpt>
      <trkpt lat="47.6729" lon="6.02478">
        <ele>206.23908996582</ele>
        <time>2018-08-16T15:47:43Z</time>
      </trkpt>
      <trkpt lat="47.67302" lon="6.02546">
        <ele>206.18403625488</ele>
        <time>2018-08-16T15:47:47Z</time>
      </trkpt>
      <trkpt lat="47.6731" lon="6.02578">
        <ele>206.66735839844</ele>
        <time>2018-08-16T15:47:50Z</time>
      </trkpt>
      <trkpt lat="47.67315" lon="6.02588">
        <ele>206.77697753906</ele>
        <time>2018-08-16T15:48:05Z</time>
      </trkpt>
      <trkpt lat="47.67367" lon="6.0266">
        <ele>204.76531982422</ele>
        <time>2018-08-16T15:48:09Z</time>
      </trkpt>
      <trkpt lat="47.67522" lon="6.02871">
        <ele>205</ele>
        <time>2018-08-16T15:48:29Z</time>
      </trkpt>
      <trkpt lat="47.67582" lon="6.02952">
        <ele>205.11811828613</ele>
        <time>2018-08-16T15:48:39Z</time>
      </trkpt>
      <trkpt lat="47.6764" lon="6.03031">
        <ele>204.71690368652</ele>
        <time>2018-08-16T15:48:45Z</time>
      </trkpt>
      <trkpt lat="47.67757" lon="6.03189">
        <ele>203.49394226074</ele>
        <time>2018-08-16T15:48:56Z</time>
      </trkpt>
      <trkpt lat="47.67825" lon="6.0328">
        <ele>204.48426818848</ele>
        <time>2018-08-16T15:49:08Z</time>
      </trkpt>
      <trkpt lat="47.67889" lon="6.03372">
        <ele>204.8589630127</ele>
        <time>2018-08-16T15:49:13Z</time>
      </trkpt>
      <trkpt lat="47.67931" lon="6.03439">
        <ele>205.21131896973</ele>
        <time>2018-08-16T15:49:25Z</time>
      </trkpt>
      <trkpt lat="47.67948" lon="6.03469">
        <ele>205.47398376465</ele>
        <time>2018-08-16T15:49:31Z</time>
      </trkpt>
      <trkpt lat="47.67959" lon="6.03483">
        <ele>205.48420715332</ele>
        <time>2018-08-16T15:49:42Z</time>
      </trkpt>
      <trkpt lat="47.68016" lon="6.03543">
        <ele>204.92874145508</ele>
        <time>2018-08-16T15:49:52Z</time>
      </trkpt>
      <trkpt lat="47.68038" lon="6.03566">
        <ele>204.96073913574</ele>
        <time>2018-08-16T15:49:53Z</time>
      </trkpt>
      <trkpt lat="47.68063" lon="6.0357">
        <ele>204.88098144531</ele>
        <time>2018-08-16T15:49:53Z</time>
      </trkpt>
      <trkpt lat="47.68104" lon="6.03578">
        <ele>204.89060974121</ele>
        <time>2018-08-16T15:49:54Z</time>
      </trkpt>
      <trkpt lat="47.68126" lon="6.03582">
        <ele>204.9603729248</ele>
        <time>2018-08-16T15:50:00Z</time>
      </trkpt>
      <trkpt lat="47.68173" lon="6.03573">
        <ele>205</ele>
        <time>2018-08-16T15:50:05Z</time>
      </trkpt>
      <trkpt lat="47.68196" lon="6.03569">
        <ele>205</ele>
        <time>2018-08-16T15:50:09Z</time>
      </trkpt>
      <trkpt lat="47.68215" lon="6.03567">
        <ele>205</ele>
        <time>2018-08-16T15:50:19Z</time>
      </trkpt>
      <trkpt lat="47.68237" lon="6.03568">
        <ele>205</ele>
        <time>2018-08-16T15:50:36Z</time>
      </trkpt>
      <trkpt lat="47.68262" lon="6.0357">
        <ele>205</ele>
        <time>2018-08-16T15:50:50Z</time>
      </trkpt>
      <trkpt lat="47.68317" lon="6.03579">
        <ele>205.48306274414</ele>
        <time>2018-08-16T15:51:04Z</time>
      </trkpt>
      <trkpt lat="47.6835" lon="6.03589">
        <ele>205.72819519043</ele>
        <time>2018-08-16T15:51:12Z</time>
      </trkpt>
      <trkpt lat="47.6838" lon="6.036">
        <ele>206.00491333008</ele>
        <time>2018-08-16T15:51:20Z</time>
      </trkpt>
      <trkpt lat="47.68406" lon="6.03614">
        <ele>206.17967224121</ele>
        <time>2018-08-16T15:51:27Z</time>
      </trkpt>
      <trkpt lat="47.68423" lon="6.03621">
        <ele>206.51858520508</ele>
        <time>2018-08-16T15:51:36Z</time>
      </trkpt>
      <trkpt lat="47.68438" lon="6.03624">
        <ele>206.91178894043</ele>
        <time>2018-08-16T15:52:01Z</time>
      </trkpt>
      <trkpt lat="47.68452" lon="6.03618">
        <ele>207.4069519043</ele>
        <time>2018-08-16T15:52:30Z</time>
      </trkpt>
      <trkpt lat="47.68469" lon="6.03612">
        <ele>207.98950195312</ele>
        <time>2018-08-16T15:52:51Z</time>
      </trkpt>
      <trkpt lat="47.68524" lon="6.03636">
        <ele>208.54875183105</ele>
        <time>2018-08-16T15:53:11Z</time>
      </trkpt>
      <trkpt lat="47.68566" lon="6.03647">
        <ele>209.23707580566</ele>
        <time>2018-08-16T15:53:30Z</time>
      </trkpt>
      <trkpt lat="47.68588" lon="6.03648">
        <ele>209.77560424805</ele>
        <time>2018-08-16T15:53:39Z</time>
      </trkpt>
      <trkpt lat="47.686" lon="6.03643">
        <ele>210.20845031738</ele>
        <time>2018-08-16T15:53:48Z</time>
      </trkpt>
      <trkpt lat="47.68609" lon="6.03624">
        <ele>211.06056213379</ele>
        <time>2018-08-16T15:54:15Z</time>
      </trkpt>
      <trkpt lat="47.68709" lon="6.03638">
        <ele>213.24600219727</ele>
        <time>2018-08-16T15:54:15Z</time>
      </trkpt>
      <trkpt lat="47.68766" lon="6.03648">
        <ele>213.57221984863</ele>
        <time>2018-08-16T15:54:31Z</time>
      </trkpt>
      <trkpt lat="47.6879" lon="6.03649">
        <ele>213.73522949219</ele>
        <time>2018-08-16T15:54:49Z</time>
      </trkpt>
      <trkpt lat="47.68829" lon="6.03651">
        <ele>213.86587524414</ele>
        <time>2018-08-16T15:55:24Z</time>
      </trkpt>
      <trkpt lat="47.68858" lon="6.03651">
        <ele>213.86587524414</ele>
        <time>2018-08-16T15:56:30Z</time>
      </trkpt>
      <trkpt lat="47.6889" lon="6.03653">
        <ele>213.66198730469</ele>
        <time>2018-08-16T15:56:38Z</time>
      </trkpt>
      <trkpt lat="47.68895" lon="6.03654">
        <ele>213.73840332031</ele>
        <time>2018-08-16T15:58:29Z</time>
      </trkpt>
      <trkpt lat="47.68895" lon="6.03654">
        <ele>213.73840332031</ele>
        <time>2018-08-16T15:58:29Z</time>
      </trkpt>
      <trkpt lat="47.68933" lon="6.03669">
        <ele>213.54098510742</ele>
        <time>2018-08-16T15:59:15Z</time>
      </trkpt>
      <trkpt lat="47.68956" lon="6.03683">
        <ele>212.73387145996</ele>
        <time>2018-08-16T15:59:25Z</time>
      </trkpt>
      <trkpt lat="47.68983" lon="6.03702">
        <ele>211.4906463623</ele>
        <time>2018-08-16T15:59:29Z</time>
      </trkpt>
      <trkpt lat="47.69038" lon="6.03747">
        <ele>209.59046936035</ele>
        <time>2018-08-16T15:59:33Z</time>
      </trkpt>
      <trkpt lat="47.691" lon="6.03789">
        <ele>208.0726776123</ele>
        <time>2018-08-16T15:59:38Z</time>
      </trkpt>
      <trkpt lat="47.69048" lon="6.03914">
        <ele>205.87951660156</ele>
        <time>2018-08-16T15:59:43Z</time>
      </trkpt>
      <trkpt lat="47.69008" lon="6.04016">
        <ele>208.06301879883</ele>
        <time>2018-08-16T15:59:47Z</time>
      </trkpt>
      <trkpt lat="47.68937" lon="6.04193">
        <ele>210.2619934082</ele>
        <time>2018-08-16T15:59:53Z</time>
      </trkpt>
      <trkpt lat="47.68925" lon="6.04225">
        <ele>210.99375915527</ele>
        <time>2018-08-16T16:00:01Z</time>
      </trkpt>
      <trkpt lat="47.68925" lon="6.04225">
        <ele>210.99375915527</ele>
        <time>2018-08-16T16:00:08Z</time>
      </trkpt>
      <trkpt lat="47.68886" lon="6.04325">
        <ele>217.65965270996</ele>
        <time>2018-08-16T16:00:15Z</time>
      </trkpt>
      <trkpt lat="47.68875" lon="6.04342">
        <ele>218.98295593262</ele>
        <time>2018-08-16T16:00:22Z</time>
      </trkpt>
      <trkpt lat="47.68862" lon="6.04378">
        <ele>221.50729370117</ele>
        <time>2018-08-16T16:00:35Z</time>
      </trkpt>
      <trkpt lat="47.6885" lon="6.04416">
        <ele>223.44311523438</ele>
        <time>2018-08-16T16:00:44Z</time>
      </trkpt>
      <trkpt lat="47.6884" lon="6.04471">
        <ele>225.24311828613</ele>
        <time>2018-08-16T16:00:52Z</time>
      </trkpt>
      <trkpt lat="47.68833" lon="6.04526">
        <ele>226.0418548584</ele>
        <time>2018-08-16T16:00:59Z</time>
      </trkpt>
      <trkpt lat="47.68827" lon="6.04607">
        <ele>226.5386505127</ele>
        <time>2018-08-16T16:01:05Z</time>
      </trkpt>
      <trkpt lat="47.68825" lon="6.04676">
        <ele>226.56727600098</ele>
        <time>2018-08-16T16:01:11Z</time>
      </trkpt>
      <trkpt lat="47.68822" lon="6.04811">
        <ele>228.01983642578</ele>
        <time>2018-08-16T16:01:16Z</time>
      </trkpt>
      <trkpt lat="47.68817" lon="6.04869">
        <ele>228.2463684082</ele>
        <time>2018-08-16T16:01:18Z</time>
      </trkpt>
      <trkpt lat="47.68815" lon="6.0488">
        <ele>228.47702026367</ele>
        <time>2018-08-16T16:01:18Z</time>
      </trkpt>
      <trkpt lat="47.68799" lon="6.04884">
        <ele>229.16763305664</ele>
        <time>2018-08-16T16:01:31Z</time>
      </trkpt>
      <trkpt lat="47.68786" lon="6.04891">
        <ele>229.73498535156</ele>
        <time>2018-08-16T16:01:37Z</time>
      </trkpt>
      <trkpt lat="47.68746" lon="6.04749">
        <ele>231.38043212891</ele>
        <time>2018-08-16T16:01:40Z</time>
      </trkpt>
      <trkpt lat="47.68736" lon="6.04717">
        <ele>232.07908630371</ele>
        <time>2018-08-16T16:01:43Z</time>
      </trkpt>
      <trkpt lat="47.68728" lon="6.04698">
        <ele>232.58023071289</ele>
        <time>2018-08-16T16:01:46Z</time>
      </trkpt>
      <trkpt lat="47.68714" lon="6.04673">
        <ele>233.16342163086</ele>
        <time>2018-08-16T16:01:58Z</time>
      </trkpt>
      <trkpt lat="47.68686" lon="6.04611">
        <ele>233.23890686035</ele>
        <time>2018-08-16T16:02:06Z</time>
      </trkpt>
      <trkpt lat="47.68671" lon="6.04575">
        <ele>232.08679199219</ele>
        <time>2018-08-16T16:02:09Z</time>
      </trkpt>
      <trkpt lat="47.68666" lon="6.04558">
        <ele>231.36233520508</ele>
        <time>2018-08-16T16:02:11Z</time>
      </trkpt>
      <trkpt lat="47.68654" lon="6.04543">
        <ele>230.39430236816</ele>
        <time>2018-08-16T16:02:16Z</time>
      </trkpt>
      <trkpt lat="47.6865" lon="6.0454">
        <ele>230.12748718262</ele>
        <time>2018-08-16T16:02:23Z</time>
      </trkpt>
    </trkseg>
  </trk>
</gpx>